sensor_id;sensor_type;location;lat;lon;timestamp;temperature;humidity
17405;DHT22;8820;54.604;18.226;2024-01-27T00:00:59;6.00;99.90
17405;DHT22;8820;54.604;18.226;2024-01-27T00:03:28;6.10;99.90
17405;DHT22;8820;54.604;18.226;2024-01-27T00:05:56;6.00;99.90
17405;DHT22;8820;54.604;18.226;2024-01-27T00:08:24;6.00;99.90
17405;DHT22;8820;54.604;18.226;2024-01-27T00:10:53;5.90;99.90
17405;DHT22;8820;54.604;18.226;2024-01-27T00:13:22;5.90;99.90
17405;DHT22;8820;54.604;18.226;2024-01-27T00:15:50;5.90;99.90
17405;DHT22;8820;54.604;18.226;2024-01-27T00:18:21;5.90;99.90
17405;DHT22;8820;54.604;18.226;2024-01-27T00:20:50;5.80;99.90
17405;DHT22;8820;54.604;18.226;2024-01-27T00:23:18;5.80;99.90
17405;DHT22;8820;54.604;18.226;2024-01-27T00:25:47;5.70;99.90
17405;DHT22;8820;54.604;18.226;2024-01-27T00:28:16;5.70;99.90
17405;DHT22;8820;54.604;18.226;2024-01-27T00:30:45;5.70;99.90
17405;DHT22;8820;54.604;18.226;2024-01-27T00:33:13;5.70;99.90
17405;DHT22;8820;54.604;18.226;2024-01-27T00:35:41;5.70;99.90
17405;DHT22;8820;54.604;18.226;2024-01-27T00:38:10;5.70;99.90
17405;DHT22;8820;54.604;18.226;2024-01-27T00:40:38;5.80;99.90
17405;DHT22;8820;54.604;18.226;2024-01-27T00:43:06;5.80;99.90
17405;DHT22;8820;54.604;18.226;2024-01-27T00:45:36;5.70;99.90
17405;DHT22;8820;54.604;18.226;2024-01-27T00:48:05;5.80;99.90
17405;DHT22;8820;54.604;18.226;2024-01-27T00:50:34;5.70;99.90
17405;DHT22;8820;54.604;18.226;2024-01-27T00:53:02;5.70;99.90
17405;DHT22;8820;54.604;18.226;2024-01-27T00:55:31;5.70;99.90
17405;DHT22;8820;54.604;18.226;2024-01-27T00:57:59;5.60;99.90
17405;DHT22;8820;54.604;18.226;2024-01-27T01:00:27;5.70;99.90
17405;DHT22;8820;54.604;18.226;2024-01-27T01:02:57;5.70;99.90
17405;DHT22;8820;54.604;18.226;2024-01-27T01:05:25;5.60;99.90
17405;DHT22;8820;54.604;18.226;2024-01-27T01:07:53;5.50;99.90
17405;DHT22;8820;54.604;18.226;2024-01-27T01:10:22;5.50;99.90
17405;DHT22;8820;54.604;18.226;2024-01-27T01:12:50;5.50;99.90
17405;DHT22;8820;54.604;18.226;2024-01-27T01:15:18;5.60;99.90
17405;DHT22;8820;54.604;18.226;2024-01-27T01:17:47;5.50;99.90
17405;DHT22;8820;54.604;18.226;2024-01-27T01:20:17;5.50;99.90
17405;DHT22;8820;54.604;18.226;2024-01-27T01:22:45;5.50;99.90
17405;DHT22;8820;54.604;18.226;2024-01-27T01:25:13;5.40;99.90
17405;DHT22;8820;54.604;18.226;2024-01-27T01:27:41;5.40;99.90
17405;DHT22;8820;54.604;18.226;2024-01-27T01:30:10;5.30;99.90
17405;DHT22;8820;54.604;18.226;2024-01-27T01:32:39;5.30;99.90
17405;DHT22;8820;54.604;18.226;2024-01-27T01:35:07;5.30;99.90
17405;DHT22;8820;54.604;18.226;2024-01-27T01:37:37;5.30;99.90
17405;DHT22;8820;54.604;18.226;2024-01-27T01:40:06;5.30;99.90
17405;DHT22;8820;54.604;18.226;2024-01-27T01:42:35;5.30;99.90
17405;DHT22;8820;54.604;18.226;2024-01-27T01:45:04;5.30;99.90
17405;DHT22;8820;54.604;18.226;2024-01-27T01:47:32;5.30;99.90
17405;DHT22;8820;54.604;18.226;2024-01-27T01:50:01;5.20;99.90
17405;DHT22;8820;54.604;18.226;2024-01-27T01:52:30;5.10;99.90
17405;DHT22;8820;54.604;18.226;2024-01-27T01:55:00;5.10;99.90
17405;DHT22;8820;54.604;18.226;2024-01-27T01:57:28;5.20;99.90
17405;DHT22;8820;54.604;18.226;2024-01-27T01:59:57;5.30;99.90
17405;DHT22;8820;54.604;18.226;2024-01-27T02:02:25;5.30;99.90
17405;DHT22;8820;54.604;18.226;2024-01-27T02:04:53;5.20;99.90
17405;DHT22;8820;54.604;18.226;2024-01-27T02:07:22;5.20;99.90
17405;DHT22;8820;54.604;18.226;2024-01-27T02:09:50;5.20;99.90
17405;DHT22;8820;54.604;18.226;2024-01-27T02:12:19;5.10;99.90
17405;DHT22;8820;54.604;18.226;2024-01-27T02:14:48;5.10;99.90
17405;DHT22;8820;54.604;18.226;2024-01-27T02:17:16;5.10;99.90
17405;DHT22;8820;54.604;18.226;2024-01-27T02:19:44;4.90;99.90
17405;DHT22;8820;54.604;18.226;2024-01-27T02:22:13;4.90;99.90
17405;DHT22;8820;54.604;18.226;2024-01-27T02:24:42;4.80;99.90
17405;DHT22;8820;54.604;18.226;2024-01-27T02:27:11;4.90;99.90
17405;DHT22;8820;54.604;18.226;2024-01-27T02:29:39;4.80;99.90
17405;DHT22;8820;54.604;18.226;2024-01-27T02:32:07;4.80;99.90
17405;DHT22;8820;54.604;18.226;2024-01-27T02:34:35;4.80;99.90
17405;DHT22;8820;54.604;18.226;2024-01-27T02:37:04;4.80;99.90
17405;DHT22;8820;54.604;18.226;2024-01-27T02:39:32;4.70;99.90
17405;DHT22;8820;54.604;18.226;2024-01-27T02:42:03;4.70;99.90
17405;DHT22;8820;54.604;18.226;2024-01-27T02:44:32;4.70;99.90
17405;DHT22;8820;54.604;18.226;2024-01-27T02:47:00;4.70;99.90
17405;DHT22;8820;54.604;18.226;2024-01-27T02:49:28;4.70;99.90
17405;DHT22;8820;54.604;18.226;2024-01-27T02:51:57;4.80;99.90
17405;DHT22;8820;54.604;18.226;2024-01-27T02:54:25;4.80;99.90
17405;DHT22;8820;54.604;18.226;2024-01-27T02:56:54;4.80;99.90
17405;DHT22;8820;54.604;18.226;2024-01-27T02:59:24;4.90;99.90
17405;DHT22;8820;54.604;18.226;2024-01-27T03:01:52;4.90;99.90
17405;DHT22;8820;54.604;18.226;2024-01-27T03:04:21;4.90;99.90
17405;DHT22;8820;54.604;18.226;2024-01-27T03:06:49;4.90;99.90
17405;DHT22;8820;54.604;18.226;2024-01-27T03:09:17;5.00;99.90
17405;DHT22;8820;54.604;18.226;2024-01-27T03:11:46;4.90;99.90
17405;DHT22;8820;54.604;18.226;2024-01-27T03:14:14;4.90;99.90
17405;DHT22;8820;54.604;18.226;2024-01-27T03:16:44;5.00;99.90
17405;DHT22;8820;54.604;18.226;2024-01-27T03:19:12;4.90;99.90
17405;DHT22;8820;54.604;18.226;2024-01-27T03:21:40;4.90;99.90
17405;DHT22;8820;54.604;18.226;2024-01-27T03:24:09;4.90;99.90
17405;DHT22;8820;54.604;18.226;2024-01-27T03:26:37;5.00;99.90
17405;DHT22;8820;54.604;18.226;2024-01-27T03:29:05;5.00;99.90
17405;DHT22;8820;54.604;18.226;2024-01-27T03:31:34;4.90;99.90
17405;DHT22;8820;54.604;18.226;2024-01-27T03:34:04;5.00;99.90
17405;DHT22;8820;54.604;18.226;2024-01-27T03:36:33;5.00;99.90
17405;DHT22;8820;54.604;18.226;2024-01-27T03:39:01;4.90;99.90
17405;DHT22;8820;54.604;18.226;2024-01-27T03:41:30;4.90;99.90
17405;DHT22;8820;54.604;18.226;2024-01-27T03:43:58;5.00;99.90
17405;DHT22;8820;54.604;18.226;2024-01-27T03:46:27;5.00;99.90
17405;DHT22;8820;54.604;18.226;2024-01-27T03:48:55;5.10;99.90
17405;DHT22;8820;54.604;18.226;2024-01-27T03:51:25;5.10;99.90
17405;DHT22;8820;54.604;18.226;2024-01-27T03:53:53;5.10;99.90
17405;DHT22;8820;54.604;18.226;2024-01-27T03:56:21;5.10;99.90
17405;DHT22;8820;54.604;18.226;2024-01-27T03:58:50;5.10;99.90
17405;DHT22;8820;54.604;18.226;2024-01-27T04:01:18;5.00;99.90
17405;DHT22;8820;54.604;18.226;2024-01-27T04:03:46;5.00;99.90
17405;DHT22;8820;54.604;18.226;2024-01-27T04:06:15;4.90;99.90
17405;DHT22;8820;54.604;18.226;2024-01-27T04:08:44;4.80;99.90
17405;DHT22;8820;54.604;18.226;2024-01-27T04:11:19;4.90;99.90
17405;DHT22;8820;54.604;18.226;2024-01-27T04:13:49;4.90;99.90
17405;DHT22;8820;54.604;18.226;2024-01-27T04:16:18;4.80;99.90
17405;DHT22;8820;54.604;18.226;2024-01-27T04:18:46;4.80;99.90
17405;DHT22;8820;54.604;18.226;2024-01-27T04:21:15;4.80;99.90
17405;DHT22;8820;54.604;18.226;2024-01-27T04:23:45;4.90;99.90
17405;DHT22;8820;54.604;18.226;2024-01-27T04:26:13;4.70;99.90
17405;DHT22;8820;54.604;18.226;2024-01-27T04:28:41;4.60;99.90
17405;DHT22;8820;54.604;18.226;2024-01-27T04:31:10;4.60;99.90
17405;DHT22;8820;54.604;18.226;2024-01-27T04:33:38;4.70;99.90
17405;DHT22;8820;54.604;18.226;2024-01-27T04:36:06;4.80;99.90
17405;DHT22;8820;54.604;18.226;2024-01-27T04:38:36;4.90;99.90
17405;DHT22;8820;54.604;18.226;2024-01-27T04:41:06;4.90;99.90
17405;DHT22;8820;54.604;18.226;2024-01-27T04:43:34;4.70;99.90
17405;DHT22;8820;54.604;18.226;2024-01-27T04:46:03;4.60;99.90
17405;DHT22;8820;54.604;18.226;2024-01-27T04:48:31;4.60;99.90
17405;DHT22;8820;54.604;18.226;2024-01-27T04:50:59;4.60;99.90
17405;DHT22;8820;54.604;18.226;2024-01-27T04:53:28;4.40;99.90
17405;DHT22;8820;54.604;18.226;2024-01-27T04:55:56;4.40;99.90
17405;DHT22;8820;54.604;18.226;2024-01-27T04:58:26;4.30;99.90
17405;DHT22;8820;54.604;18.226;2024-01-27T05:00:54;4.40;99.90
17405;DHT22;8820;54.604;18.226;2024-01-27T05:03:23;4.30;99.90
17405;DHT22;8820;54.604;18.226;2024-01-27T05:05:51;4.50;99.90
17405;DHT22;8820;54.604;18.226;2024-01-27T05:08:19;4.50;99.90
17405;DHT22;8820;54.604;18.226;2024-01-27T05:10:48;4.50;99.90
17405;DHT22;8820;54.604;18.226;2024-01-27T05:13:16;4.50;99.90
17405;DHT22;8820;54.604;18.226;2024-01-27T05:15:47;4.60;99.90
17405;DHT22;8820;54.604;18.226;2024-01-27T05:18:16;4.70;99.90
17405;DHT22;8820;54.604;18.226;2024-01-27T05:20:45;4.70;99.90
17405;DHT22;8820;54.604;18.226;2024-01-27T05:23:13;4.60;99.90
17405;DHT22;8820;54.604;18.226;2024-01-27T05:25:41;4.50;99.90
17405;DHT22;8820;54.604;18.226;2024-01-27T05:28:10;4.50;99.90
17405;DHT22;8820;54.604;18.226;2024-01-27T05:30:38;4.50;99.90
17405;DHT22;8820;54.604;18.226;2024-01-27T05:33:08;4.60;99.90
17405;DHT22;8820;54.604;18.226;2024-01-27T05:35:36;4.60;99.90
17405;DHT22;8820;54.604;18.226;2024-01-27T05:38:04;4.60;99.90
17405;DHT22;8820;54.604;18.226;2024-01-27T05:40:33;4.60;99.90
17405;DHT22;8820;54.604;18.226;2024-01-27T05:43:03;4.60;99.90
17405;DHT22;8820;54.604;18.226;2024-01-27T05:45:31;4.60;99.90
17405;DHT22;8820;54.604;18.226;2024-01-27T05:48:00;4.60;99.90
17405;DHT22;8820;54.604;18.226;2024-01-27T05:50:30;4.60;99.90
17405;DHT22;8820;54.604;18.226;2024-01-27T05:52:59;4.60;99.90
17405;DHT22;8820;54.604;18.226;2024-01-27T05:55:27;4.60;99.90
17405;DHT22;8820;54.604;18.226;2024-01-27T05:57:55;4.60;99.90
17405;DHT22;8820;54.604;18.226;2024-01-27T06:00:24;4.80;99.90
17405;DHT22;8820;54.604;18.226;2024-01-27T06:02:52;4.80;99.90
17405;DHT22;8820;54.604;18.226;2024-01-27T06:05:21;4.70;99.90
17405;DHT22;8820;54.604;18.226;2024-01-27T06:07:51;4.70;99.90
17405;DHT22;8820;54.604;18.226;2024-01-27T06:10:19;4.70;99.90
17405;DHT22;8820;54.604;18.226;2024-01-27T06:12:48;4.50;99.90
17405;DHT22;8820;54.604;18.226;2024-01-27T06:15:16;4.30;99.90
17405;DHT22;8820;54.604;18.226;2024-01-27T06:17:45;4.20;99.90
17405;DHT22;8820;54.604;18.226;2024-01-27T06:20:13;4.20;99.90
17405;DHT22;8820;54.604;18.226;2024-01-27T06:22:43;4.30;99.90
17405;DHT22;8820;54.604;18.226;2024-01-27T06:25:14;4.20;99.90
17405;DHT22;8820;54.604;18.226;2024-01-27T06:27:43;4.30;99.90
17405;DHT22;8820;54.604;18.226;2024-01-27T06:30:13;4.20;99.90
17405;DHT22;8820;54.604;18.226;2024-01-27T06:32:42;4.30;99.90
17405;DHT22;8820;54.604;18.226;2024-01-27T06:35:10;4.20;99.90
17405;DHT22;8820;54.604;18.226;2024-01-27T06:37:39;4.30;99.90
17405;DHT22;8820;54.604;18.226;2024-01-27T06:40:08;4.30;99.90
17405;DHT22;8820;54.604;18.226;2024-01-27T06:42:38;4.40;99.90
17405;DHT22;8820;54.604;18.226;2024-01-27T06:45:07;4.30;99.90
17405;DHT22;8820;54.604;18.226;2024-01-27T06:47:36;4.30;99.90
17405;DHT22;8820;54.604;18.226;2024-01-27T06:50:05;4.40;99.90
17405;DHT22;8820;54.604;18.226;2024-01-27T06:52:34;4.40;99.90
17405;DHT22;8820;54.604;18.226;2024-01-27T06:55:03;4.40;99.90
17405;DHT22;8820;54.604;18.226;2024-01-27T06:57:33;4.30;99.90
17405;DHT22;8820;54.604;18.226;2024-01-27T07:00:04;4.50;99.90
17405;DHT22;8820;54.604;18.226;2024-01-27T07:02:33;4.50;99.90
17405;DHT22;8820;54.604;18.226;2024-01-27T07:05:01;4.40;99.90
17405;DHT22;8820;54.604;18.226;2024-01-27T07:07:29;4.40;99.90
17405;DHT22;8820;54.604;18.226;2024-01-27T07:09:58;4.50;99.90
17405;DHT22;8820;54.604;18.226;2024-01-27T07:12:26;4.40;99.90
17405;DHT22;8820;54.604;18.226;2024-01-27T07:14:55;4.40;99.90
17405;DHT22;8820;54.604;18.226;2024-01-27T07:17:25;4.30;99.90
17405;DHT22;8820;54.604;18.226;2024-01-27T07:19:53;4.40;99.90
17405;DHT22;8820;54.604;18.226;2024-01-27T07:22:22;4.50;99.90
17405;DHT22;8820;54.604;18.226;2024-01-27T07:24:51;4.50;99.90
17405;DHT22;8820;54.604;18.226;2024-01-27T07:27:20;4.50;99.90
17405;DHT22;8820;54.604;18.226;2024-01-27T07:29:49;4.30;99.90
17405;DHT22;8820;54.604;18.226;2024-01-27T07:32:17;4.30;99.90
17405;DHT22;8820;54.604;18.226;2024-01-27T07:34:47;4.50;99.90
17405;DHT22;8820;54.604;18.226;2024-01-27T07:37:15;4.30;99.90
17405;DHT22;8820;54.604;18.226;2024-01-27T07:39:44;4.30;99.90
17405;DHT22;8820;54.604;18.226;2024-01-27T07:42:12;4.20;99.90
17405;DHT22;8820;54.604;18.226;2024-01-27T07:44:40;4.10;99.90
17405;DHT22;8820;54.604;18.226;2024-01-27T07:47:09;4.20;99.90
17405;DHT22;8820;54.604;18.226;2024-01-27T07:49:37;4.10;99.90
17405;DHT22;8820;54.604;18.226;2024-01-27T07:52:07;4.20;99.90
17405;DHT22;8820;54.604;18.226;2024-01-27T07:54:36;4.20;99.90
17405;DHT22;8820;54.604;18.226;2024-01-27T07:57:06;4.20;99.90
17405;DHT22;8820;54.604;18.226;2024-01-27T07:59:34;4.30;99.90
17405;DHT22;8820;54.604;18.226;2024-01-27T08:02:03;4.50;99.90
17405;DHT22;8820;54.604;18.226;2024-01-27T08:04:31;4.40;99.90
17405;DHT22;8820;54.604;18.226;2024-01-27T08:06:59;4.30;99.90
17405;DHT22;8820;54.604;18.226;2024-01-27T08:09:34;4.20;99.90
17405;DHT22;8820;54.604;18.226;2024-01-27T08:12:03;4.30;99.90
17405;DHT22;8820;54.604;18.226;2024-01-27T08:14:32;4.30;99.90
17405;DHT22;8820;54.604;18.226;2024-01-27T08:17:02;4.10;99.90
17405;DHT22;8820;54.604;18.226;2024-01-27T08:19:31;4.00;99.90
17405;DHT22;8820;54.604;18.226;2024-01-27T08:22:00;4.00;99.90
17405;DHT22;8820;54.604;18.226;2024-01-27T08:24:28;4.00;99.90
17405;DHT22;8820;54.604;18.226;2024-01-27T08:26:58;4.10;99.90
17405;DHT22;8820;54.604;18.226;2024-01-27T08:29:27;4.10;99.90
17405;DHT22;8820;54.604;18.226;2024-01-27T08:31:56;4.00;99.90
17405;DHT22;8820;54.604;18.226;2024-01-27T08:34:25;4.00;99.90
17405;DHT22;8820;54.604;18.226;2024-01-27T08:36:59;4.10;99.90
17405;DHT22;8820;54.604;18.226;2024-01-27T08:39:28;4.30;99.90
17405;DHT22;8820;54.604;18.226;2024-01-27T08:41:58;4.10;99.90
17405;DHT22;8820;54.604;18.226;2024-01-27T08:44:26;4.00;99.90
17405;DHT22;8820;54.604;18.226;2024-01-27T08:46:54;4.00;99.90
17405;DHT22;8820;54.604;18.226;2024-01-27T08:49:25;4.10;99.90
17405;DHT22;8820;54.604;18.226;2024-01-27T08:51:54;4.00;99.90
17405;DHT22;8820;54.604;18.226;2024-01-27T08:54:23;4.20;99.90
17405;DHT22;8820;54.604;18.226;2024-01-27T08:56:52;4.30;99.90
17405;DHT22;8820;54.604;18.226;2024-01-27T08:59:21;4.10;99.90
17405;DHT22;8820;54.604;18.226;2024-01-27T09:01:50;4.30;99.90
17405;DHT22;8820;54.604;18.226;2024-01-27T09:04:18;4.30;99.90
17405;DHT22;8820;54.604;18.226;2024-01-27T09:06:46;4.30;99.90
17405;DHT22;8820;54.604;18.226;2024-01-27T09:09:15;4.40;99.90
17405;DHT22;8820;54.604;18.226;2024-01-27T09:11:43;4.40;99.90
17405;DHT22;8820;54.604;18.226;2024-01-27T09:14:12;4.50;99.90
17405;DHT22;8820;54.604;18.226;2024-01-27T09:16:42;4.50;99.90
17405;DHT22;8820;54.604;18.226;2024-01-27T09:19:12;4.60;99.90
17405;DHT22;8820;54.604;18.226;2024-01-27T09:21:41;4.60;99.90
17405;DHT22;8820;54.604;18.226;2024-01-27T09:24:09;4.60;99.90
17405;DHT22;8820;54.604;18.226;2024-01-27T09:26:40;4.60;99.90
17405;DHT22;8820;54.604;18.226;2024-01-27T09:29:09;4.60;99.90
17405;DHT22;8820;54.604;18.226;2024-01-27T09:31:37;4.70;99.90
17405;DHT22;8820;54.604;18.226;2024-01-27T09:34:07;4.60;99.90
17405;DHT22;8820;54.604;18.226;2024-01-27T09:36:35;4.70;99.90
17405;DHT22;8820;54.604;18.226;2024-01-27T09:39:07;4.70;99.90
17405;DHT22;8820;54.604;18.226;2024-01-27T09:41:35;4.70;99.90
17405;DHT22;8820;54.604;18.226;2024-01-27T09:44:04;4.70;99.90
17405;DHT22;8820;54.604;18.226;2024-01-27T09:46:33;4.60;99.90
17405;DHT22;8820;54.604;18.226;2024-01-27T09:49:02;4.70;99.90
17405;DHT22;8820;54.604;18.226;2024-01-27T09:51:35;4.80;99.90
17405;DHT22;8820;54.604;18.226;2024-01-27T09:54:05;4.80;99.90
17405;DHT22;8820;54.604;18.226;2024-01-27T09:56:34;4.90;99.90
17405;DHT22;8820;54.604;18.226;2024-01-27T09:59:03;4.90;99.90
17405;DHT22;8820;54.604;18.226;2024-01-27T10:01:33;4.80;99.90
17405;DHT22;8820;54.604;18.226;2024-01-27T10:04:03;4.90;99.90
17405;DHT22;8820;54.604;18.226;2024-01-27T10:06:32;5.00;99.90
17405;DHT22;8820;54.604;18.226;2024-01-27T10:09:02;5.00;99.90
17405;DHT22;8820;54.604;18.226;2024-01-27T10:11:32;5.10;99.90
17405;DHT22;8820;54.604;18.226;2024-01-27T10:14:01;5.00;99.90
17405;DHT22;8820;54.604;18.226;2024-01-27T10:16:40;5.00;99.90
17405;DHT22;8820;54.604;18.226;2024-01-27T10:19:12;5.00;99.90
17405;DHT22;8820;54.604;18.226;2024-01-27T10:21:43;5.00;99.90
17405;DHT22;8820;54.604;18.226;2024-01-27T10:24:13;5.00;99.90
17405;DHT22;8820;54.604;18.226;2024-01-27T10:26:42;5.00;99.90
17405;DHT22;8820;54.604;18.226;2024-01-27T10:29:10;5.00;99.90
17405;DHT22;8820;54.604;18.226;2024-01-27T10:31:39;5.00;99.90
17405;DHT22;8820;54.604;18.226;2024-01-27T10:34:08;5.00;99.90
17405;DHT22;8820;54.604;18.226;2024-01-27T10:36:43;5.00;99.90
17405;DHT22;8820;54.604;18.226;2024-01-27T10:39:18;5.00;99.90
17405;DHT22;8820;54.604;18.226;2024-01-27T10:41:48;5.00;99.90
17405;DHT22;8820;54.604;18.226;2024-01-27T10:44:17;5.10;99.90
17405;DHT22;8820;54.604;18.226;2024-01-27T10:46:47;5.20;99.90
17405;DHT22;8820;54.604;18.226;2024-01-27T10:49:17;5.20;99.90
17405;DHT22;8820;54.604;18.226;2024-01-27T10:51:51;5.20;99.90
17405;DHT22;8820;54.604;18.226;2024-01-27T10:54:24;5.10;99.90
17405;DHT22;8820;54.604;18.226;2024-01-27T10:56:55;5.10;99.90
17405;DHT22;8820;54.604;18.226;2024-01-27T10:59:27;5.00;99.90
17405;DHT22;8820;54.604;18.226;2024-01-27T11:01:56;5.10;99.90
17405;DHT22;8820;54.604;18.226;2024-01-27T11:04:25;5.00;99.90
17405;DHT22;8820;54.604;18.226;2024-01-27T11:06:55;5.10;99.90
17405;DHT22;8820;54.604;18.226;2024-01-27T11:09:28;5.10;99.90
17405;DHT22;8820;54.604;18.226;2024-01-27T11:11:56;5.10;99.90
17405;DHT22;8820;54.604;18.226;2024-01-27T11:14:25;5.10;99.90
17405;DHT22;8820;54.604;18.226;2024-01-27T11:16:57;5.10;99.90
17405;DHT22;8820;54.604;18.226;2024-01-27T11:19:27;5.20;99.90
17405;DHT22;8820;54.604;18.226;2024-01-27T11:22:04;5.40;99.90
17405;DHT22;8820;54.604;18.226;2024-01-27T11:24:34;5.30;99.90
17405;DHT22;8820;54.604;18.226;2024-01-27T11:27:04;5.30;99.90
17405;DHT22;8820;54.604;18.226;2024-01-27T11:29:33;5.40;99.90
17405;DHT22;8820;54.604;18.226;2024-01-27T11:32:02;5.30;99.90
17405;DHT22;8820;54.604;18.226;2024-01-27T11:34:42;5.30;99.90
17405;DHT22;8820;54.604;18.226;2024-01-27T11:37:12;5.20;99.90
17405;DHT22;8820;54.604;18.226;2024-01-27T11:39:42;5.30;99.90
17405;DHT22;8820;54.604;18.226;2024-01-27T11:42:11;5.40;99.90
17405;DHT22;8820;54.604;18.226;2024-01-27T11:44:41;5.30;99.90
17405;DHT22;8820;54.604;18.226;2024-01-27T11:47:14;5.40;99.90
17405;DHT22;8820;54.604;18.226;2024-01-27T11:49:44;5.40;99.90
17405;DHT22;8820;54.604;18.226;2024-01-27T11:52:18;5.40;99.90
17405;DHT22;8820;54.604;18.226;2024-01-27T11:54:53;5.50;99.90
17405;DHT22;8820;54.604;18.226;2024-01-27T11:57:22;5.70;99.90
17405;DHT22;8820;54.604;18.226;2024-01-27T11:59:51;5.60;99.90
17405;DHT22;8820;54.604;18.226;2024-01-27T12:02:19;5.70;99.90
17405;DHT22;8820;54.604;18.226;2024-01-27T12:04:48;5.70;99.90
17405;DHT22;8820;54.604;18.226;2024-01-27T12:07:17;5.60;99.90
17405;DHT22;8820;54.604;18.226;2024-01-27T12:09:50;5.80;99.90
17405;DHT22;8820;54.604;18.226;2024-01-27T12:12:19;5.70;99.90
17405;DHT22;8820;54.604;18.226;2024-01-27T12:14:49;5.70;99.90
17405;DHT22;8820;54.604;18.226;2024-01-27T12:17:18;5.80;99.90
17405;DHT22;8820;54.604;18.226;2024-01-27T12:19:47;5.80;99.90
17405;DHT22;8820;54.604;18.226;2024-01-27T12:22:23;5.80;99.90
17405;DHT22;8820;54.604;18.226;2024-01-27T12:24:54;5.70;99.90
17405;DHT22;8820;54.604;18.226;2024-01-27T12:27:23;5.80;99.90
17405;DHT22;8820;54.604;18.226;2024-01-27T12:29:52;5.90;99.90
17405;DHT22;8820;54.604;18.226;2024-01-27T12:32:20;5.90;99.90
17405;DHT22;8820;54.604;18.226;2024-01-27T12:34:49;6.10;99.90
17405;DHT22;8820;54.604;18.226;2024-01-27T12:37:18;6.10;99.90
17405;DHT22;8820;54.604;18.226;2024-01-27T12:39:46;6.30;99.90
17405;DHT22;8820;54.604;18.226;2024-01-27T12:42:19;6.20;99.90
17405;DHT22;8820;54.604;18.226;2024-01-27T12:44:48;6.20;99.90
17405;DHT22;8820;54.604;18.226;2024-01-27T12:47:15;6.10;99.90
17405;DHT22;8820;54.604;18.226;2024-01-27T12:49:43;5.90;99.90
17405;DHT22;8820;54.604;18.226;2024-01-27T12:52:12;5.90;99.90
17405;DHT22;8820;54.604;18.226;2024-01-27T12:54:41;5.80;99.90
17405;DHT22;8820;54.604;18.226;2024-01-27T12:57:09;6.00;99.90
17405;DHT22;8820;54.604;18.226;2024-01-27T12:59:39;6.20;99.90
17405;DHT22;8820;54.604;18.226;2024-01-27T13:02:07;6.10;99.90
17405;DHT22;8820;54.604;18.226;2024-01-27T13:04:36;6.20;99.90
17405;DHT22;8820;54.604;18.226;2024-01-27T13:07:04;6.20;99.90
17405;DHT22;8820;54.604;18.226;2024-01-27T13:09:33;6.20;99.90
17405;DHT22;8820;54.604;18.226;2024-01-27T13:12:01;6.10;99.90
17405;DHT22;8820;54.604;18.226;2024-01-27T13:14:30;6.00;99.90
17405;DHT22;8820;54.604;18.226;2024-01-27T13:16:59;6.00;99.90
17405;DHT22;8820;54.604;18.226;2024-01-27T13:19:28;6.00;99.90
17405;DHT22;8820;54.604;18.226;2024-01-27T13:21:58;6.10;99.90
17405;DHT22;8820;54.604;18.226;2024-01-27T13:24:26;6.00;99.90
17405;DHT22;8820;54.604;18.226;2024-01-27T13:26:54;5.90;99.90
17405;DHT22;8820;54.604;18.226;2024-01-27T13:29:23;5.90;99.90
17405;DHT22;8820;54.604;18.226;2024-01-27T13:31:51;6.00;99.90
17405;DHT22;8820;54.604;18.226;2024-01-27T13:34:21;6.10;99.90
17405;DHT22;8820;54.604;18.226;2024-01-27T13:36:49;5.90;99.90
17405;DHT22;8820;54.604;18.226;2024-01-27T13:39:18;5.90;99.90
17405;DHT22;8820;54.604;18.226;2024-01-27T13:41:46;5.90;99.90
17405;DHT22;8820;54.604;18.226;2024-01-27T13:44:14;5.80;99.90
17405;DHT22;8820;54.604;18.226;2024-01-27T13:46:43;5.80;99.90
17405;DHT22;8820;54.604;18.226;2024-01-27T13:49:11;6.00;99.90
17405;DHT22;8820;54.604;18.226;2024-01-27T13:51:41;6.10;99.90
17405;DHT22;8820;54.604;18.226;2024-01-27T13:54:09;6.10;99.90
17405;DHT22;8820;54.604;18.226;2024-01-27T13:56:38;5.90;99.90
17405;DHT22;8820;54.604;18.226;2024-01-27T13:59:06;5.70;99.90
17405;DHT22;8820;54.604;18.226;2024-01-27T14:01:35;5.60;99.90
17405;DHT22;8820;54.604;18.226;2024-01-27T14:04:03;5.60;99.90
17405;DHT22;8820;54.604;18.226;2024-01-27T14:06:32;5.60;99.90
17405;DHT22;8820;54.604;18.226;2024-01-27T14:09:02;5.60;99.90
17405;DHT22;8820;54.604;18.226;2024-01-27T14:11:30;5.60;99.90
17405;DHT22;8820;54.604;18.226;2024-01-27T14:13:59;5.60;99.90
17405;DHT22;8820;54.604;18.226;2024-01-27T14:16:27;5.60;99.90
17405;DHT22;8820;54.604;18.226;2024-01-27T14:18:56;5.70;99.90
17405;DHT22;8820;54.604;18.226;2024-01-27T14:21:24;5.70;99.90
17405;DHT22;8820;54.604;18.226;2024-01-27T14:23:54;5.70;99.90
17405;DHT22;8820;54.604;18.226;2024-01-27T14:26:29;5.70;99.90
17405;DHT22;8820;54.604;18.226;2024-01-27T14:28:58;5.70;99.90
17405;DHT22;8820;54.604;18.226;2024-01-27T14:31:26;5.80;99.90
17405;DHT22;8820;54.604;18.226;2024-01-27T14:33:57;5.90;99.90
17405;DHT22;8820;54.604;18.226;2024-01-27T14:36:26;5.70;99.90
17405;DHT22;8820;54.604;18.226;2024-01-27T14:38:54;5.70;99.90
17405;DHT22;8820;54.604;18.226;2024-01-27T14:41:23;5.60;99.90
17405;DHT22;8820;54.604;18.226;2024-01-27T14:43:53;5.60;99.90
17405;DHT22;8820;54.604;18.226;2024-01-27T14:46:22;5.70;99.90
17405;DHT22;8820;54.604;18.226;2024-01-27T14:48:51;5.50;99.90
17405;DHT22;8820;54.604;18.226;2024-01-27T14:51:21;5.50;99.90
17405;DHT22;8820;54.604;18.226;2024-01-27T14:53:50;5.60;99.90
17405;DHT22;8820;54.604;18.226;2024-01-27T14:56:18;5.60;99.90
17405;DHT22;8820;54.604;18.226;2024-01-27T14:58:46;5.50;99.90
17405;DHT22;8820;54.604;18.226;2024-01-27T15:01:19;5.50;99.90
17405;DHT22;8820;54.604;18.226;2024-01-27T15:03:48;5.40;99.90
17405;DHT22;8820;54.604;18.226;2024-01-27T15:06:16;5.50;99.90
17405;DHT22;8820;54.604;18.226;2024-01-27T15:08:44;5.50;99.90
17405;DHT22;8820;54.604;18.226;2024-01-27T15:11:13;5.40;99.90
17405;DHT22;8820;54.604;18.226;2024-01-27T15:13:41;5.40;99.90
17405;DHT22;8820;54.604;18.226;2024-01-27T15:16:10;5.40;99.90
17405;DHT22;8820;54.604;18.226;2024-01-27T15:18:39;5.40;99.90
17405;DHT22;8820;54.604;18.226;2024-01-27T15:21:11;5.40;99.90
17405;DHT22;8820;54.604;18.226;2024-01-27T15:23:40;5.40;99.90
17405;DHT22;8820;54.604;18.226;2024-01-27T15:26:08;5.40;99.90
17405;DHT22;8820;54.604;18.226;2024-01-27T15:28:38;5.40;99.90
17405;DHT22;8820;54.604;18.226;2024-01-27T15:31:07;5.50;99.90
17405;DHT22;8820;54.604;18.226;2024-01-27T15:33:35;5.50;99.90
17405;DHT22;8820;54.604;18.226;2024-01-27T15:36:06;5.40;99.90
17405;DHT22;8820;54.604;18.226;2024-01-27T15:38:35;5.40;99.90
17405;DHT22;8820;54.604;18.226;2024-01-27T15:41:04;5.30;99.90
17405;DHT22;8820;54.604;18.226;2024-01-27T15:43:34;5.30;99.90
17405;DHT22;8820;54.604;18.226;2024-01-27T15:46:03;5.30;99.90
17405;DHT22;8820;54.604;18.226;2024-01-27T15:48:33;5.20;99.90
17405;DHT22;8820;54.604;18.226;2024-01-27T15:51:05;5.30;99.90
17405;DHT22;8820;54.604;18.226;2024-01-27T15:53:34;5.30;99.90
17405;DHT22;8820;54.604;18.226;2024-01-27T15:56:03;5.40;99.90